Time,TemperatureF,DewpointF,PressureIn,WindDirection,WindDirectionDegrees,WindSpeedMPH,WindSpeedGustMPH,Humidity,HourlyPrecipIn,Conditions,Clouds,dailyrainin,SoftwareType,DateUTC
2013-01-08 00:04:00,20.0,15.0,30.21,ESE,116,0.0,1.0,82,0.00,,,0.00,,2013-01-08 05:04:00,
2013-01-08 00:12:00,20.0,15.0,30.21,ESE,116,0.0,1.0,82,0.00,,,0.00,,2013-01-08 05:12:00,
2013-01-08 00:22:00,20.0,15.0,30.21,ESE,116,0.0,1.0,82,0.00,,,0.00,,2013-01-08 05:22:00,
2013-01-08 00:33:00,20.0,15.0,30.21,ESE,116,0.0,1.0,82,0.00,,,0.00,,2013-01-08 05:33:00,
2013-01-08 00:43:00,20.0,15.0,30.21,ESE,116,0.0,1.0,82,0.00,,,0.00,,2013-01-08 05:43:00,
2013-01-08 00:53:00,20.0,15.0,30.21,ESE,116,0.0,1.0,82,0.00,,,0.00,,2013-01-08 05:53:00,
2013-01-08 01:02:00,20.0,15.0,30.21,ESE,116,0.0,1.0,82,0.00,,,0.00,,2013-01-08 06:02:00,
2013-01-08 01:12:00,20.0,15.0,30.21,ESE,116,0.0,1.0,82,0.00,,,0.00,,2013-01-08 06:12:00,
2013-01-08 01:22:00,20.0,15.0,30.21,ESE,116,0.0,1.0,82,0.00,,,0.00,,2013-01-08 06:22:00,
2013-01-08 01:33:00,20.0,15.0,30.21,ESE,116,0.0,1.0,82,0.00,,,0.00,,2013-01-08 06:33:00,
2013-01-08 01:42:00,20.0,15.0,30.21,ESE,116,0.0,1.0,82,0.00,,,0.00,,2013-01-08 06:42:00,
2013-01-08 01:52:00,20.0,15.0,30.21,ESE,116,0.0,1.0,82,0.00,,,0.00,,2013-01-08 06:52:00,
2013-01-08 02:02:00,20.0,15.0,30.21,ESE,116,0.0,1.0,82,0.00,,,0.00,,2013-01-08 07:02:00,
2013-01-08 02:12:00,20.0,15.0,30.21,ESE,116,0.0,1.0,82,0.00,,,0.00,,2013-01-08 07:12:00,
2013-01-08 02:22:00,20.0,15.0,30.21,ESE,116,0.0,1.0,82,0.00,,,0.00,,2013-01-08 07:22:00,
2013-01-08 02:32:00,20.0,15.0,30.21,ESE,116,0.0,1.0,82,0.00,,,0.00,,2013-01-08 07:32:00,
2013-01-08 02:42:00,20.0,15.0,30.21,ESE,116,0.0,1.0,82,0.00,,,0.00,,2013-01-08 07:42:00,
2013-01-08 02:52:00,20.0,15.0,30.21,ESE,116,0.0,1.0,82,0.00,,,0.00,,2013-01-08 07:52:00,
2013-01-08 03:02:00,20.0,15.0,30.21,ESE,116,0.0,1.0,82,0.00,,,0.00,,2013-01-08 08:02:00,
2013-01-08 03:12:00,20.0,15.0,30.21,ESE,116,0.0,1.0,82,0.00,,,0.00,,2013-01-08 08:12:00,
2013-01-08 03:22:00,20.0,15.0,30.21,ESE,116,0.0,1.0,82,0.00,,,0.00,,2013-01-08 08:22:00,
2013-01-08 03:32:00,20.0,15.0,30.21,ESE,116,0.0,1.0,82,0.00,,,0.00,,2013-01-08 08:32:00,
2013-01-08 03:42:00,20.0,15.0,30.21,ESE,116,0.0,1.0,82,0.00,,,0.00,,2013-01-08 08:42:00,
2013-01-08 03:52:00,20.0,15.0,30.21,ESE,116,0.0,1.0,82,0.00,,,0.00,,2013-01-08 08:52:00,
2013-01-08 04:02:00,20.0,15.0,30.21,ESE,116,0.0,1.0,82,0.00,,,0.00,,2013-01-08 09:02:00,
2013-01-08 04:12:00,20.0,15.0,30.21,ESE,116,0.0,1.0,82,0.00,,,0.00,,2013-01-08 09:12:00,
2013-01-08 04:22:00,20.0,15.0,30.21,ESE,116,0.0,1.0,82,0.00,,,0.00,,2013-01-08 09:22:00,
2013-01-08 04:32:00,11.0,8.0,30.29,North,0,0.0,0.0,87,0.01,,,0.01,,2013-01-08 09:32:00,
2013-01-08 04:42:00,11.0,8.0,30.29,North,0,0.0,0.0,87,0.01,,,0.01,,2013-01-08 09:42:00,
2013-01-08 04:52:00,11.0,8.0,30.28,North,0,0.0,0.0,88,0.01,,,0.01,,2013-01-08 09:52:00,
2013-01-08 05:02:00,11.0,8.0,30.28,North,0,0.0,0.0,88,0.01,,,0.01,,2013-01-08 10:02:00,
2013-01-08 05:12:00,11.0,8.0,30.28,North,0,0.0,0.0,88,0.01,,,0.01,,2013-01-08 10:12:00,
2013-01-08 05:22:00,11.0,8.0,30.28,North,0,0.0,0.0,88,0.01,,,0.01,,2013-01-08 10:22:00,
2013-01-08 05:33:00,12.0,9.0,30.27,North,0,0.0,0.0,88,0.00,,,0.01,,2013-01-08 10:33:00,
2013-01-08 05:42:00,12.0,9.0,30.27,North,0,0.0,0.0,88,0.00,,,0.01,,2013-01-08 10:42:00,
2013-01-08 05:52:00,11.0,8.0,30.27,North,0,0.0,0.0,87,0.00,,,0.01,,2013-01-08 10:52:00,
2013-01-08 06:02:00,11.0,8.0,30.27,North,0,0.0,0.0,87,0.00,,,0.01,,2013-01-08 11:02:00,
2013-01-08 06:12:00,11.0,8.0,30.27,North,0,0.0,0.0,87,0.00,,,0.01,,2013-01-08 11:12:00,
2013-01-08 06:22:00,11.0,8.0,30.28,North,0,0.0,0.0,87,0.00,,,0.01,,2013-01-08 11:22:00,
2013-01-08 06:33:00,10.0,7.0,30.28,North,0,0.0,0.0,87,0.00,,,0.01,,2013-01-08 11:33:00,
2013-01-08 06:42:00,10.0,7.0,30.28,North,0,0.0,0.0,87,0.00,,,0.01,,2013-01-08 11:42:00,
2013-01-08 06:53:00,10.0,7.0,30.27,North,0,0.0,0.0,87,0.00,,,0.01,,2013-01-08 11:53:00,
2013-01-08 07:03:00,10.0,7.0,30.28,North,0,0.0,0.0,86,0.00,,,0.01,,2013-01-08 12:03:00,
2013-01-08 07:12:00,10.0,7.0,30.28,North,0,0.0,0.0,86,0.00,,,0.01,,2013-01-08 12:12:00,
2013-01-08 07:22:00,10.0,7.0,30.28,North,0,0.0,0.0,87,0.00,,,0.01,,2013-01-08 12:22:00,
2013-01-08 07:33:00,10.0,7.0,30.29,North,0,0.0,0.0,87,0.00,,,0.01,,2013-01-08 12:33:00,
2013-01-08 07:43:00,10.0,7.0,30.29,North,0,0.0,0.0,87,0.00,,,0.01,,2013-01-08 12:43:00,
2013-01-08 07:53:00,10.0,7.0,30.29,North,0,0.0,0.0,87,0.00,,,0.01,,2013-01-08 12:53:00,
2013-01-08 08:03:00,9.0,6.0,30.30,North,0,0.0,0.0,86,0.00,,,0.01,,2013-01-08 13:03:00,
2013-01-08 08:12:00,9.0,6.0,30.30,North,0,0.0,0.0,86,0.00,,,0.01,,2013-01-08 13:12:00,
2013-01-08 08:22:00,10.0,7.0,30.31,North,0,0.0,0.0,87,0.00,,,0.01,,2013-01-08 13:22:00,
2013-01-08 08:33:00,10.0,7.0,30.32,North,0,0.0,0.0,88,0.00,,,0.01,,2013-01-08 13:33:00,
2013-01-08 08:43:00,10.0,7.0,30.32,North,0,0.0,0.0,88,0.00,,,0.01,,2013-01-08 13:43:00,
2013-01-08 08:52:00,12.0,9.0,30.32,WNW,286,0.0,1.0,89,0.00,,,0.01,,2013-01-08 13:52:00,
2013-01-08 09:02:00,14.0,11.0,30.32,North,0,0.0,0.0,89,0.00,,,0.01,,2013-01-08 14:02:00,
2013-01-08 09:13:00,14.0,11.0,30.32,North,0,0.0,0.0,89,0.00,,,0.01,,2013-01-08 14:13:00,
2013-01-08 09:23:00,15.0,12.0,30.32,North,0,0.0,0.0,89,0.00,,,0.01,,2013-01-08 14:23:00,
2013-01-08 09:33:00,18.0,16.0,30.31,WNW,286,0.0,3.0,90,0.00,,,0.01,,2013-01-08 14:33:00,
2013-01-08 09:43:00,18.0,16.0,30.31,WNW,286,0.0,3.0,90,0.00,,,0.01,,2013-01-08 14:43:00,
2013-01-08 09:53:00,20.0,18.0,30.31,WNW,286,0.0,2.0,90,0.00,,,0.01,,2013-01-08 14:53:00,
2013-01-08 10:03:00,30.0,25.0,30.31,SW,217,0.0,4.0,83,0.00,,,0.01,,2013-01-08 15:03:00,
2013-01-08 10:12:00,30.0,25.0,30.31,SW,217,0.0,4.0,83,0.00,,,0.01,,2013-01-08 15:12:00,
2013-01-08 10:22:00,32.0,26.0,30.31,SW,232,0.0,2.0,78,0.00,,,0.01,,2013-01-08 15:22:00,
2013-01-08 10:33:00,34.0,26.0,30.31,SW,225,1.0,7.0,72,0.00,,,0.01,,2013-01-08 15:33:00,
2013-01-08 10:43:00,34.0,26.0,30.31,SW,225,1.0,7.0,72,0.00,,,0.01,,2013-01-08 15:43:00,
2013-01-08 10:53:00,37.0,26.0,30.29,SW,228,3.0,10.0,65,0.00,,,0.01,,2013-01-08 15:53:00,
2013-01-08 11:03:00,40.0,27.0,30.29,SW,236,4.0,13.0,60,0.00,,,0.01,,2013-01-08 16:03:00,
2013-01-08 11:13:00,40.0,27.0,30.29,SW,236,4.0,13.0,60,0.00,,,0.01,,2013-01-08 16:13:00,
2013-01-08 11:23:00,40.0,27.0,30.28,SW,230,5.0,13.0,59,0.00,,,0.01,,2013-01-08 16:23:00,
2013-01-08 11:34:00,41.0,27.0,30.27,SW,236,5.0,14.0,57,0.00,,,0.01,,2013-01-08 16:34:00,
2013-01-08 11:43:00,41.0,27.0,30.27,SW,236,5.0,14.0,57,0.00,,,0.01,,2013-01-08 16:43:00,
2013-01-08 11:52:00,42.0,27.0,30.27,WSW,237,4.0,10.0,56,0.00,,,0.01,,2013-01-08 16:52:00,
2013-01-08 12:03:00,43.0,27.0,30.26,WSW,245,4.0,10.0,53,0.00,,,0.01,,2013-01-08 17:03:00,
2013-01-08 12:13:00,43.0,27.0,30.26,WSW,245,4.0,10.0,53,0.00,,,0.01,,2013-01-08 17:13:00,
2013-01-08 12:23:00,43.0,27.0,30.26,SW,229,3.0,10.0,52,0.00,,,0.01,,2013-01-08 17:23:00,
2013-01-08 12:34:00,43.0,27.0,30.26,WSW,238,4.0,10.0,52,0.00,,,0.01,,2013-01-08 17:34:00,
2013-01-08 12:43:00,43.0,27.0,30.26,WSW,238,4.0,10.0,52,0.00,,,0.01,,2013-01-08 17:43:00,
2013-01-08 12:53:00,44.0,27.0,30.25,SW,230,2.0,10.0,51,0.00,,,0.01,,2013-01-08 17:53:00,
2013-01-08 13:04:00,43.0,27.0,30.25,WSW,241,3.0,9.0,53,0.00,,,0.01,,2013-01-08 18:04:00,
2013-01-08 13:13:00,43.0,27.0,30.25,WSW,241,3.0,9.0,53,0.00,,,0.01,,2013-01-08 18:13:00,
2013-01-08 13:23:00,44.0,27.0,30.25,SW,228,4.0,12.0,50,0.00,,,0.01,,2013-01-08 18:23:00,
2013-01-08 13:33:00,44.0,26.0,30.24,SW,224,4.0,10.0,49,0.00,,,0.01,,2013-01-08 18:33:00,
2013-01-08 13:43:00,44.0,26.0,30.24,SW,224,4.0,10.0,49,0.00,,,0.01,,2013-01-08 18:43:00,
2013-01-08 13:53:00,44.0,26.0,30.24,SW,225,4.0,11.0,49,0.00,,,0.01,,2013-01-08 18:53:00,
2013-01-08 14:03:00,44.0,25.0,30.24,WSW,248,3.0,9.0,47,0.00,,,0.01,,2013-01-08 19:03:00,
2013-01-08 14:12:00,44.0,25.0,30.24,WSW,248,3.0,9.0,47,0.00,,,0.01,,2013-01-08 19:12:00,
2013-01-08 14:23:00,44.0,26.0,30.24,WSW,240,4.0,12.0,48,0.00,,,0.01,,2013-01-08 19:23:00,
2013-01-08 14:33:00,44.0,26.0,30.25,WSW,243,4.0,14.0,49,0.00,,,0.01,,2013-01-08 19:33:00,
2013-01-08 14:43:00,44.0,26.0,30.25,WSW,243,4.0,14.0,49,0.00,,,0.01,,2013-01-08 19:43:00,
2013-01-08 14:53:00,44.0,26.0,30.26,WSW,237,4.0,9.0,49,0.00,,,0.01,,2013-01-08 19:53:00,
2013-01-08 15:03:00,44.0,27.0,30.26,SW,233,3.0,10.0,50,0.00,,,0.01,,2013-01-08 20:03:00,
2013-01-08 15:12:00,44.0,27.0,30.26,SW,233,3.0,10.0,50,0.00,,,0.01,,2013-01-08 20:12:00,
2013-01-08 15:23:00,44.0,27.0,30.26,SW,236,4.0,11.0,50,0.00,,,0.01,,2013-01-08 20:23:00,
2013-01-08 15:33:00,43.0,26.0,30.26,SW,233,3.0,8.0,51,0.00,,,0.01,,2013-01-08 20:33:00,
2013-01-08 15:43:00,43.0,26.0,30.26,SW,233,3.0,8.0,51,0.00,,,0.01,,2013-01-08 20:43:00,
2013-01-08 15:53:00,43.0,27.0,30.26,SW,231,3.0,8.0,52,0.00,,,0.01,,2013-01-08 20:53:00,
2013-01-08 16:03:00,42.0,26.0,30.26,SW,230,3.0,8.0,53,0.00,,,0.01,,2013-01-08 21:03:00,
2013-01-08 16:13:00,42.0,26.0,30.26,SW,230,3.0,8.0,53,0.00,,,0.01,,2013-01-08 21:13:00,
2013-01-08 16:23:00,42.0,27.0,30.26,SW,221,4.0,11.0,54,0.00,,,0.01,,2013-01-08 21:23:00,
2013-01-08 16:33:00,41.0,27.0,30.26,SW,226,1.0,6.0,57,0.00,,,0.01,,2013-01-08 21:33:00,
2013-01-08 16:43:00,41.0,27.0,30.26,SW,226,1.0,6.0,57,0.00,,,0.01,,2013-01-08 21:43:00,
2013-01-08 16:53:00,40.0,28.0,30.26,SSW,213,0.0,3.0,61,0.00,,,0.01,,2013-01-08 21:53:00,
2013-01-08 17:12:00,37.0,26.0,30.27,SSW,212,0.0,1.0,65,0.00,,,0.01,,2013-01-08 22:12:00,
2013-01-08 17:23:00,36.0,27.0,30.27,North,0,0.0,0.0,69,0.00,,,0.01,,2013-01-08 22:23:00,
2013-01-08 17:33:00,33.0,25.0,30.28,North,0,0.0,0.0,73,0.00,,,0.01,,2013-01-08 22:33:00,
2013-01-08 17:43:00,33.0,25.0,30.28,North,0,0.0,0.0,73,0.00,,,0.01,,2013-01-08 22:43:00,
2013-01-08 17:52:00,32.0,25.0,30.28,North,0,0.0,0.0,75,0.00,,,0.01,,2013-01-08 22:52:00,
2013-01-08 18:03:00,31.0,25.0,30.29,North,0,0.0,0.0,78,0.00,,,0.01,,2013-01-08 23:03:00,
2013-01-08 18:13:00,31.0,25.0,30.29,North,0,0.0,0.0,78,0.00,,,0.01,,2013-01-08 23:13:00,
2013-01-08 18:22:00,31.0,25.0,30.29,SSW,211,0.0,1.0,78,0.00,,,0.01,,2013-01-08 23:22:00,
2013-01-08 18:33:00,30.0,24.0,30.30,North,0,0.0,0.0,79,0.00,,,0.01,,2013-01-08 23:33:00,
2013-01-08 18:43:00,30.0,24.0,30.30,North,0,0.0,0.0,79,0.00,,,0.01,,2013-01-08 23:43:00,
2013-01-08 18:52:00,29.0,24.0,30.30,North,0,0.0,0.0,80,0.00,,,0.01,,2013-01-08 23:52:00,
2013-01-08 19:03:00,28.0,23.0,30.31,North,0,0.0,0.0,82,0.00,,,0.01,,2013-01-09 00:03:00,
2013-01-08 19:13:00,28.0,23.0,30.31,North,0,0.0,0.0,82,0.00,,,0.01,,2013-01-09 00:13:00,
2013-01-08 19:22:00,28.0,24.0,30.31,North,0,0.0,0.0,83,0.00,,,0.01,,2013-01-09 00:22:00,
2013-01-08 19:33:00,27.0,23.0,30.32,SSW,211,0.0,1.0,84,0.00,,,0.01,,2013-01-09 00:33:00,
2013-01-08 19:43:00,27.0,23.0,30.32,SSW,211,0.0,1.0,84,0.00,,,0.01,,2013-01-09 00:43:00,
2013-01-08 19:52:00,27.0,23.0,30.32,North,0,0.0,0.0,85,0.00,,,0.01,,2013-01-09 00:52:00,
2013-01-08 20:02:00,26.0,22.0,30.32,North,0,0.0,0.0,86,0.00,,,0.01,,2013-01-09 01:02:00,
2013-01-08 20:12:00,26.0,22.0,30.32,North,0,0.0,0.0,86,0.00,,,0.01,,2013-01-09 01:12:00,
2013-01-08 20:22:00,26.0,22.0,30.33,North,0,0.0,0.0,86,0.00,,,0.01,,2013-01-09 01:22:00,
2013-01-08 20:33:00,26.0,23.0,30.33,North,0,0.0,0.0,87,0.00,,,0.01,,2013-01-09 01:33:00,
2013-01-08 20:42:00,26.0,23.0,30.33,North,0,0.0,0.0,87,0.00,,,0.01,,2013-01-09 01:42:00,
2013-01-08 20:52:00,25.0,22.0,30.34,North,0,0.0,0.0,87,0.00,,,0.01,,2013-01-09 01:52:00,
2013-01-08 21:02:00,25.0,22.0,30.34,North,0,0.0,0.0,88,0.00,,,0.01,,2013-01-09 02:02:00,
2013-01-08 21:12:00,25.0,22.0,30.34,North,0,0.0,0.0,88,0.00,,,0.01,,2013-01-09 02:12:00,
2013-01-08 21:22:00,25.0,22.0,30.34,North,0,0.0,0.0,88,0.00,,,0.01,,2013-01-09 02:22:00,
2013-01-08 21:33:00,25.0,22.0,30.33,North,0,0.0,0.0,89,0.00,,,0.01,,2013-01-09 02:33:00,
2013-01-08 21:43:00,25.0,22.0,30.33,North,0,0.0,0.0,89,0.00,,,0.01,,2013-01-09 02:43:00,
2013-01-08 21:52:00,25.0,22.0,30.34,North,0,0.0,0.0,88,0.00,,,0.01,,2013-01-09 02:52:00,
2013-01-08 22:03:00,24.0,21.0,30.34,North,0,0.0,0.0,88,0.00,,,0.01,,2013-01-09 03:03:00,
2013-01-08 22:12:00,24.0,21.0,30.34,North,0,0.0,0.0,88,0.00,,,0.01,,2013-01-09 03:12:00,
2013-01-08 22:22:00,24.0,21.0,30.34,North,0,0.0,0.0,89,0.00,,,0.01,,2013-01-09 03:22:00,
2013-01-08 22:33:00,24.0,21.0,30.34,North,0,0.0,0.0,89,0.00,,,0.01,,2013-01-09 03:33:00,
2013-01-08 22:43:00,24.0,21.0,30.34,North,0,0.0,0.0,89,0.00,,,0.01,,2013-01-09 03:43:00,
2013-01-08 22:52:00,24.0,21.0,30.34,North,0,0.0,0.0,89,0.00,,,0.01,,2013-01-09 03:52:00,
2013-01-08 23:02:00,24.0,21.0,30.33,North,0,0.0,0.0,89,0.00,,,0.01,,2013-01-09 04:02:00,
2013-01-08 23:12:00,24.0,21.0,30.33,North,0,0.0,0.0,89,0.00,,,0.01,,2013-01-09 04:12:00,
2013-01-08 23:22:00,24.0,21.0,30.34,North,0,0.0,0.0,89,0.00,,,0.01,,2013-01-09 04:22:00,
2013-01-08 23:33:00,24.0,21.0,30.35,North,0,0.0,0.0,89,0.00,,,0.01,,2013-01-09 04:33:00,
2013-01-08 23:42:00,24.0,21.0,30.35,North,0,0.0,0.0,89,0.00,,,0.01,,2013-01-09 04:42:00,
2013-01-08 23:52:00,24.0,21.0,30.35,North,0,0.0,0.0,89,0.00,,,0.01,,2013-01-09 04:52:00,